Stations météo

réclame
Mon MeteoGroup
Berkhout, Pays-Bas (6249): Température de l'air & dewpoint: 28.06.2020 04:00:00 - 04.07.2020 04:00:00 (CEST)Berkhout, Pays-Bas (6249): Température de l'air 5cm: 28.06.2020 04:00:00 - 04.07.2020 04:00:00 (CEST)Berkhout, Pays-Bas (6249): Vitesse du vent & gusts: 28.06.2020 04:00:00 - 04.07.2020 04:00:00 (CEST)Berkhout, Pays-Bas (6249): Direction du vent: 28.06.2020 04:00:00 - 04.07.2020 04:00:00 (CEST)Berkhout, Pays-Bas (6249): visibility: 28.06.2020 04:00:00 - 04.07.2020 04:00:00 (CEST)Berkhout, Pays-Bas (6249): Quantités de précipitations: 28.06.2020 04:00:00 - 04.07.2020 04:00:00 (CEST)
Date & Time tt [°C] td [°C] tt 5cm [°C] ff [km/h] ff [knt] fx [km/h] fx [knt] dd vv [km] rr [mm]
04.07.2020 04:00:00 14,4 14,0 13,8 29 16 50 27 SW 9 0,7
04.07.2020 03:00:00 14,3 13,9 14,0 32 18 47 25 SW 3,6 1,3
04.07.2020 02:00:00 14,9 13,8 14,5 25 14 50 27 SW 4,4 0,0
04.07.2020 01:00:00 16,5 12,6 16,1 32 18 54 29 SW 19 0,0
04.07.2020 00:00:00 16,5 12,9 16,0 32 18 50 27 SW 17 0,0
03.07.2020 23:00:00 16,3 12,7 15,7 29 16 50 27 SW 19 0,0
03.07.2020 22:00:00 16,5 12,8 15,9 32 18 54 29 SW 19 0,0
03.07.2020 21:00:00 17,1 12,4 16,7 32 18 58 31 SW 23 0,0
03.07.2020 20:00:00 17,3 12,2 16,9 40 21 61 33 SW 25 0,0
03.07.2020 19:00:00 18,0 11,7 17,6 43 23 61 33 WSW 30 0,0
03.07.2020 18:00:00 18,1 11,1 17,8 36 19 61 33 WSW 45 0,0
03.07.2020 17:00:00 19,4 12,1 18,7 36 19 54 29 WSW 35 0,0
03.07.2020 16:00:00 18,2 11,3 18,3 40 21 58 31 WSW 44 0,0
03.07.2020 15:00:00 19,0 11,7 19,5 40 21 54 29 WSW 41 0,0
03.07.2020 14:00:00 19,8 12,0 20,2 36 19 54 29 WSW 37 0,0
03.07.2020 13:00:00 19,9 14,7 19,8 29 16 43 23 WSW 38 0,0
03.07.2020 12:00:00 19,4 13,4 19,3 25 14 40 21 WSW 46 0,0
03.07.2020 11:00:00 17,8 13,0 18,1 22 12 32 18 WSW 46 0,0
03.07.2020 10:00:00 17,4 12,6 16,6 22 12 32 18 WSW 45 0,0
03.07.2020 09:00:00 16,6 12,8 16,5 14 8 25 14 WSW 44 0,0
03.07.2020 08:00:00 15,8 13,1 15,5 14 8 18 10 WSW 41 0,0
03.07.2020 07:00:00 14,3 13,4 13,4 7 4 11 6 SW 20 0,0
03.07.2020 06:00:00 13,4 12,9 12,2 11 6 14 8 WSW 19 0,0
03.07.2020 05:00:00 11,9 11,9 9,1 4 2 11 6 WNW 8 0,0
03.07.2020 04:00:00 12,9 12,6 10,8 7 4 11 6 WSW 15 0,0
03.07.2020 03:00:00 13,4 13,4 12,2 7 4 7 4 WSW 16 0,0
03.07.2020 02:00:00 13,7 13,0 12,0 7 4 11 6 SW 22 0,0
03.07.2020 01:00:00 13,5 12,5 12,1 7 4 11 6 WSW 37 0,0
03.07.2020 00:00:00 14,7 13,3 14,0 11 6 18 10 SW 33 0,0
02.07.2020 23:00:00 14,8 13,3 14,0 11 6 18 10 WSW 22 0,0
02.07.2020 22:00:00 15,8 13,6 15,2 11 6 22 12 WSW 22 0,0
02.07.2020 21:00:00 16,5 13,1 16,0 14 8 29 16 W 36 0,0
02.07.2020 20:00:00 17,2 12,6 16,9 25 14 32 18 W 36 0,0
02.07.2020 19:00:00 17,4 12,7 17,0 22 12 36 19 W 41 0,0
02.07.2020 18:00:00 18,3 12,0 18,7 25 14 36 19 W 36 0,0
02.07.2020 17:00:00 17,5 11,6 17,6 25 14 36 19 W 47 0,0
02.07.2020 16:00:00 18,5 12,9 18,5 29 16 40 21 W 46 0,0
02.07.2020 15:00:00 18,4 12,7 18,3 25 14 36 19 W 40 0,0
02.07.2020 14:00:00 19,2 14,0 19,4 25 14 40 21 W 39 0,0
02.07.2020 13:00:00 19,1 12,9 19,8 29 16 40 21 WSW 42 0,0
02.07.2020 12:00:00 18,3 13,9 18,9 29 16 40 21 WSW 28 0,0
02.07.2020 11:00:00 18,1 13,6 18,1 25 14 36 19 WSW 43 0,0
02.07.2020 10:00:00 17,9 14,3 18,0 25 14 36 19 WSW 43 0,0
02.07.2020 09:00:00 17,3 14,8 17,1 22 12 29 16 WSW 34 0,0
02.07.2020 08:00:00 17,2 15,5 17,0 18 10 25 14 WSW 25 0,0
02.07.2020 07:00:00 16,8 15,5 16,4 14 8 25 14 SW 16 0,0
02.07.2020 06:00:00 16,4 15,4 15,9 11 6 18 10 WSW 14 0,0
02.07.2020 05:00:00 16,6 15,3 16,1 14 8 22 12 WSW 15 0,0
02.07.2020 04:00:00 16,7 15,3 16,2 14 8 22 12 WSW 15 0,0
02.07.2020 03:00:00 16,7 15,3 16,3 18 10 25 14 WSW 14 0,0
02.07.2020 02:00:00 16,7 15,1 16,2 18 10 25 14 WSW 14 0,0
02.07.2020 01:00:00 16,3 14,8 15,8 11 6 25 14 SW 16 0,0
02.07.2020 00:00:00 16,5 14,4 15,5 14 8 25 14 SW 20 0,0
01.07.2020 23:00:00 16,5 14,4 16,0 14 8 22 12 WSW 14 0,0
01.07.2020 22:00:00 16,6 14,5 16,0 18 10 32 18 WSW 17 0,0
01.07.2020 21:00:00 17,1 14,5 16,7 25 14 36 19 WSW 16 0,0
01.07.2020 20:00:00 17,6 14,2 17,3 22 12 36 19 WSW 19 0,0
01.07.2020 19:00:00 18,2 13,2 18,0 29 16 47 25 WSW 31 0,0
01.07.2020 18:00:00 19,1 12,7 19,4 32 18 47 25 WSW 34 0,0
01.07.2020 17:00:00 19,4 13,5 18,5 29 16 47 25 WSW 28 0,0
01.07.2020 16:00:00 18,8 14,1 18,4 32 18 43 23 WSW 27 0,0
01.07.2020 15:00:00 17,9 14,1 18,1 32 18 47 25 WSW 36 0,0
01.07.2020 14:00:00 18,3 13,9 18,7 29 16 43 23 WSW 34 0,0
01.07.2020 13:00:00 18,7 14,8 18,8 29 16 43 23 WSW 29 0,0
01.07.2020 12:00:00 18,4 14,2 18,9 29 16 43 23 WSW 30 0,0
01.07.2020 11:00:00 18,5 15,2 18,4 25 14 40 21 WSW 39 0,0
01.07.2020 10:00:00 18,2 15,1 17,9 18 10 32 18 WSW 48 0,0
01.07.2020 09:00:00 16,9 15,8 16,7 18 10 29 16 SW 23 0,0
01.07.2020 08:00:00 17,4 16,5 17,0 14 8 25 14 SW 24 0,0
01.07.2020 07:00:00 16,5 16,1 16,1 11 6 14 8 SW 16 0,1
01.07.2020 06:00:00 16,2 15,8 15,6 7 4 11 6 SSW 14 0,0
01.07.2020 05:00:00 15,9 15,7 15,4 7 4 11 6 SW 12 0,0
01.07.2020 04:00:00 15,6 15,4 15,1 7 4 14 8 SW 13 0,0
01.07.2020 03:00:00 15,5 15,4 14,8 4 2 11 6 WSW 12 0,0
01.07.2020 02:00:00 15,5 15,1 15,0 7 4 18 10 WSW 16 0,0
01.07.2020 01:00:00 15,8 15,4 15,4 11 6 18 10 WSW 15 0,0
01.07.2020 00:00:00 15,8 15,4 15,3 14 8 25 14 W 14 0,0
30.06.2020 23:00:00 15,8 15,5 15,3 14 8 25 14 WSW 20 1,0
30.06.2020 22:00:00 15,0 15,0 14,7 7 4 18 10 W 3,5 1,1
30.06.2020 21:00:00 14,8 14,6 14,6 14 8 22 12 W 3,4 0,5
30.06.2020 20:00:00 14,4 14,2 14,3 11 6 18 10 W 13 0,4
30.06.2020 19:00:00 14,8 14,8 14,5 11 6 18 10 WSW 18 1,2
30.06.2020 18:00:00 14,4 14,0 14,1 11 6 29 16 SW 4,1 0,6
30.06.2020 17:00:00 14,4 12,6 14,2 25 14 43 23 W 6 0,5
30.06.2020 16:00:00 16,0 13,8 15,6 29 16 47 25 WSW 18 0,1
30.06.2020 15:00:00 17,3 11,5 17,1 36 19 54 29 WSW 36 0,0
30.06.2020 14:00:00 16,1 11,1 15,5 32 18 47 25 WSW 31 0,0
30.06.2020 13:00:00 15,6 11,2 15,0 32 18 47 25 WSW 20 0,0
30.06.2020 12:00:00 15,9 11,6 15,7 29 16 47 25 W 38 0,0
30.06.2020 11:00:00 15,1 11,7 14,8 25 14 43 23 WSW 16 0,0
30.06.2020 10:00:00 15,0 11,2 14,5 29 16 40 21 WSW 15 0,0
30.06.2020 09:00:00 15,2 10,7 14,8 25 14 47 25 WSW 29 0,0
30.06.2020 08:00:00 15,1 10,6 14,5 29 16 40 21 WSW 31 0,0
30.06.2020 07:00:00 15,0 10,3 14,4 22 12 36 19 WSW 32 0,0
30.06.2020 06:00:00 14,9 10,2 14,3 25 14 40 21 WSW 28 0,0
30.06.2020 05:00:00 15,0 9,8 14,2 29 16 43 23 W 39 0,0
30.06.2020 04:00:00 14,8 10,8 13,9 22 12 47 25 WSW 28 0,2
30.06.2020 03:00:00 15,1 11,8 14,6 32 18 50 27 WSW 15 0,0
30.06.2020 02:00:00 15,7 11,6 15,0 36 19 50 27 WSW 18 0,0
30.06.2020 01:00:00 15,2 12,7 14,5 29 16 54 29 WSW 10 0,1
30.06.2020 00:00:00 15,2 12,7 14,5 25 14 50 27 SW 11 0,0
29.06.2020 23:00:00 15,9 11,9 15,4 32 18 50 27 SW 14 0,0
29.06.2020 22:00:00 15,9 11,5 15,4 36 19 58 31 SW 15 0,0
29.06.2020 21:00:00 16,1 11,6 15,6 32 18 54 29 SW 15 0,0
29.06.2020 20:00:00 16,2 11,5 15,9 36 19 61 33 SW 15 0,0
29.06.2020 19:00:00 16,7 11,1 16,5 40 21 65 35 SW 18 0,0
29.06.2020 18:00:00 16,5 10,4 16,2 36 19 54 29 SW 19 0,0
29.06.2020 17:00:00 16,6 10,3 16,2 36 19 58 31 WSW 23 0,0
29.06.2020 16:00:00 16,4 10,6 16,0 32 18 58 31 SW 26 0,0
29.06.2020 15:00:00 16,2 9,8 15,8 36 19 54 29 SW 30 0,0
29.06.2020 14:00:00 16,8 8,6 16,7 40 21 58 31 WSW 38 0,0
29.06.2020 13:00:00 17,7 8,7 18,2 40 21 58 31 WSW 38 0,0
29.06.2020 12:00:00 17,5 8,3 17,2 36 19 58 31 SW 34 0,0
29.06.2020 11:00:00 17,8 9,7 17,1 32 18 58 31 SW 34 0,0
29.06.2020 10:00:00 17,4 9,8 16,8 32 18 47 25 SW 36 0,0
29.06.2020 09:00:00 16,5 9,3 16,4 29 16 50 27 SW 36 0,0
29.06.2020 08:00:00 15,4 10,3 14,8 22 12 36 19 WSW 30 0,0
29.06.2020 07:00:00 14,2 11,6 13,8 18 10 22 12 SSW 25 0,0
29.06.2020 06:00:00 14,0 11,2 13,4 14 8 22 12 SSW 23 0,0
29.06.2020 05:00:00 14,4 11,4 13,8 14 8 29 16 SW 18 0,0
29.06.2020 04:00:00 14,8 11,5 14,1 18 10 29 16 SW 21 0,0
29.06.2020 03:00:00 14,8 10,8 14,1 14 8 32 18 SW 26 0,0
29.06.2020 02:00:00 14,6 9,8 13,7 18 10 29 16 SW 33 0,0
29.06.2020 01:00:00 14,9 9,5 13,7 18 10 32 18 SW 38 0,0
29.06.2020 00:00:00 15,1 9,6 14,1 22 12 36 19 SW 37 0,0
28.06.2020 23:00:00 15,4 9,6 14,4 22 12 40 21 SW 32 0,0
28.06.2020 22:00:00 15,9 9,5 14,8 25 14 54 29 SW 27 0,0
28.06.2020 21:00:00 16,6 9,1 15,8 32 18 50 27 SW 35 0,0
28.06.2020 20:00:00 17,9 8,3 17,6 36 19 58 31 WSW 38 0,0
28.06.2020 19:00:00 18,5 9,2 18,5 36 19 61 33 WSW 42 0,0
28.06.2020 18:00:00 19,2 9,4 19,4 36 19 54 29 SW 39 0,0
28.06.2020 17:00:00 18,7 11,0 18,8 36 19 54 29 SW 25 0,0
28.06.2020 16:00:00 19,5 11,8 19,0 36 19 58 31 WSW 30 0,0
28.06.2020 15:00:00 18,9 10,8 19,8 36 19 58 31 SW 26 0,0
28.06.2020 14:00:00 19,0 11,0 19,7 40 21 61 33 SW 24 0,0
28.06.2020 13:00:00 18,6 11,5 19,5 36 19 54 29 WSW 30 0,0
28.06.2020 12:00:00 18,6 10,7 18,8 36 19 58 31 SW 31 0,0
28.06.2020 11:00:00 17,3 11,6 16,6 40 21 54 29 WSW 28 0,0
28.06.2020 10:00:00 17,8 11,2 17,6 40 21 58 31 SW 26 0,0
28.06.2020 09:00:00 16,8 12,2 16,5 32 18 54 29 WSW 22 0,0
28.06.2020 08:00:00 16,5 12,2 16,0 29 16 43 23 SW 21 0,0
28.06.2020 07:00:00 16,1 11,9 15,6 25 14 40 21 SW 21 0,0
28.06.2020 06:00:00 16,3 11,5 15,7 25 14 47 25 SW 25 0,0
28.06.2020 05:00:00 16,6 11,4 15,9 29 16 43 23 SW 30 0,0
28.06.2020 04:00:00 16,8 12,5 16,1 18 10 32 18 SW 48 0,0

tt = Température de l'air
td = dewpoint
tt 5cm = Température de l'air 5cm
ff = Vitesse du vent
fx = gusts
dd = Direction du vent
vv = visibility
rr = Quantités de précipitations

stations d'obs. à proximité